Time;durP1;ratioP1;P1;durP2;ratioP2;P2;SDS_P1;SDS_P2;PMS_P1;PMS_P2;Temp;Humidity;BMP_temperature;BMP_pressure;BME280_temperature;BME280_humidity;BME280_pressure;Samples;Min_cycle;Max_cycle;Signal;HPM_P1;HPM_P2
2021/01/06 00:00:31;;;;;;;12.93;4.68;;;3.70;99.90;;;;;;5050762;28;20056;-74
2021/01/06 00:02:57;;;;;;;11.70;5.20;;;3.80;99.90;;;;;;5041370;28;20029;-74
2021/01/06 00:05:25;;;;;;;12.32;4.55;;;3.70;99.90;;;;;;5036901;28;20116;-74
2021/01/06 00:07:51;;;;;;;10.17;4.23;;;3.70;99.90;;;;;;5036932;28;20410;-74
2021/01/06 00:10:23;;;;;;;12.73;4.35;;;3.70;99.90;;;;;;5049588;28;20268;-74
2021/01/06 00:12:49;;;;;;;12.50;4.15;;;3.70;99.90;;;;;;5035901;28;20021;-74
2021/01/06 00:15:25;;;;;;;10.23;4.78;;;3.70;99.90;;;;;;5037093;28;20507;-74
2021/01/06 00:17:51;;;;;;;12.70;4.40;;;3.70;99.90;;;;;;5037300;28;20465;-73
2021/01/06 00:20:18;;;;;;;12.15;4.35;;;3.70;99.90;;;;;;5047404;28;20040;-74
2021/01/06 00:22:44;;;;;;;11.48;4.78;;;3.70;99.90;;;;;;5036847;28;20021;-74
2021/01/06 00:25:16;;;;;;;13.27;4.70;;;3.60;99.90;;;;;;5035648;28;20078;-74
2021/01/06 00:27:41;;;;;;;13.45;5.03;;;3.60;99.90;;;;;;5035413;28;20068;-74
2021/01/06 00:30:23;;;;;;;10.90;4.72;;;3.60;99.90;;;;;;5035244;28;20053;-74
2021/01/06 00:32:49;;;;;;;9.20;4.07;;;3.60;99.90;;;;;;5015357;28;20052;-74
2021/01/06 00:35:16;;;;;;;12.85;4.85;;;3.60;99.90;;;;;;5015465;28;20026;-74
2021/01/06 00:37:42;;;;;;;11.00;4.32;;;3.60;99.90;;;;;;5036359;28;20031;-74
2021/01/06 00:40:08;;;;;;;11.23;4.15;;;3.60;99.90;;;;;;5056714;28;20021;-74
2021/01/06 00:42:37;;;;;;;12.82;4.57;;;3.60;99.90;;;;;;5055453;28;20029;-73
2021/01/06 00:45:09;;;;;;;12.18;4.13;;;3.60;99.90;;;;;;5054532;28;20024;-74
2021/01/06 00:47:35;;;;;;;9.88;3.78;;;3.60;99.90;;;;;;5038673;28;20079;-74
2021/01/06 00:50:01;;;;;;;11.70;4.35;;;3.60;99.90;;;;;;5036800;28;20013;-74
2021/01/06 00:52:26;;;;;;;10.05;4.22;;;3.60;99.90;;;;;;5036641;28;20025;-74
2021/01/06 00:54:51;;;;;;;8.35;3.47;;;3.60;99.90;;;;;;5047107;28;20040;-74
2021/01/06 00:57:17;;;;;;;7.78;3.22;;;3.60;99.90;;;;;;5056363;28;20095;-74
2021/01/06 00:59:44;;;;;;;8.55;3.47;;;3.60;99.90;;;;;;5055152;28;20071;-74
2021/01/06 01:02:10;;;;;;;14.38;4.88;;;3.50;99.90;;;;;;5054248;28;20024;-74
2021/01/06 01:04:35;;;;;;;10.25;3.22;;;3.50;99.90;;;;;;5054811;28;20036;-74
2021/01/06 01:07:01;;;;;;;9.20;4.20;;;3.50;99.90;;;;;;5054384;28;20052;-74
2021/01/06 01:09:27;;;;;;;7.13;3.22;;;3.50;99.90;;;;;;5056437;28;20100;-74
2021/01/06 01:11:52;;;;;;;10.38;3.58;;;3.50;99.90;;;;;;5055481;28;20104;-74
2021/01/06 01:14:18;;;;;;;8.10;3.53;;;3.50;99.90;;;;;;5053831;28;20025;-74
2021/01/06 01:16:45;;;;;;;8.43;3.33;;;3.50;99.90;;;;;;5054455;28;20032;-74
2021/01/06 01:19:11;;;;;;;10.23;3.63;;;3.50;99.90;;;;;;5055164;28;20107;-74
2021/01/06 01:21:36;;;;;;;7.70;2.90;;;3.50;99.90;;;;;;5055502;28;20454;-74
2021/01/06 01:24:03;;;;;;;7.82;3.25;;;3.50;99.90;;;;;;5055883;28;20017;-74
2021/01/06 01:26:28;;;;;;;7.65;2.92;;;3.50;99.90;;;;;;5055426;28;20021;-74
2021/01/06 01:28:54;;;;;;;8.48;3.42;;;3.50;99.90;;;;;;5055831;28;20075;-74
2021/01/06 01:31:20;;;;;;;7.05;2.60;;;3.50;99.90;;;;;;5055172;28;20018;-74
2021/01/06 01:33:46;;;;;;;8.27;3.05;;;3.50;99.90;;;;;;5055077;28;20021;-74
2021/01/06 01:36:12;;;;;;;7.50;2.97;;;3.50;99.90;;;;;;5055015;28;20036;-74
2021/01/06 01:38:38;;;;;;;8.82;3.53;;;3.50;99.90;;;;;;5054792;28;20021;-74
2021/01/06 01:41:09;;;;;;;7.85;2.85;;;3.50;99.90;;;;;;5055543;28;20087;-74
2021/01/06 01:43:36;;;;;;;6.18;2.78;;;3.50;99.90;;;;;;5055151;28;20059;-74
2021/01/06 01:46:01;;;;;;;5.57;2.80;;;3.50;99.90;;;;;;5054518;28;20036;-74
2021/01/06 01:48:44;;;;;;;6.32;2.45;;;3.50;99.90;;;;;;5053382;28;20021;-74
2021/01/06 01:51:19;;;;;;;6.47;2.25;;;3.50;99.90;;;;;;5054652;28;20025;-74
2021/01/06 01:54:00;;;;;;;5.15;2.70;;;3.50;99.90;;;;;;5054828;28;20045;-74
2021/01/06 01:56:31;;;;;;;5.97;2.42;;;3.50;99.90;;;;;;5054517;28;20535;-74
2021/01/06 01:58:56;;;;;;;5.07;2.10;;;3.50;99.90;;;;;;5053222;28;20512;-74
2021/01/06 02:01:23;;;;;;;5.38;2.25;;;3.40;99.90;;;;;;5054325;28;20051;-74
2021/01/06 02:04:05;;;;;;;6.50;2.53;;;3.40;99.90;;;;;;5054305;28;20032;-74
2021/01/06 02:06:38;;;;;;;7.85;2.97;;;3.40;99.90;;;;;;5054810;28;20037;-74
2021/01/06 02:09:21;;;;;;;6.95;2.47;;;3.40;99.90;;;;;;5053040;28;20028;-74
2021/01/06 02:11:53;;;;;;;6.38;2.63;;;3.30;99.90;;;;;;5054320;28;20064;-73
2021/01/06 02:14:26;;;;;;;5.60;2.28;;;3.30;99.90;;;;;;5054365;28;20493;-74
2021/01/06 02:17:01;;;;;;;5.65;2.42;;;3.30;99.90;;;;;;5054092;28;20438;-74
2021/01/06 02:19:30;;;;;;;7.03;2.33;;;3.30;99.90;;;;;;5054137;28;20028;-73
2021/01/06 02:21:57;;;;;;;5.13;2.10;;;3.30;99.90;;;;;;5054181;28;20040;-74
2021/01/06 02:24:23;;;;;;;7.15;2.30;;;3.20;99.90;;;;;;5054126;28;20029;-74
2021/01/06 02:26:49;;;;;;;7.88;2.53;;;3.30;99.90;;;;;;5053935;28;20017;-74
2021/01/06 02:29:15;;;;;;;9.90;2.78;;;3.20;99.90;;;;;;5053903;28;20021;-74
2021/01/06 02:31:41;;;;;;;7.13;2.55;;;3.20;99.90;;;;;;5053927;28;20104;-74
2021/01/06 02:34:09;;;;;;;5.60;2.47;;;3.20;99.90;;;;;;5054000;28;20056;-74
2021/01/06 02:36:35;;;;;;;7.10;2.90;;;3.20;99.90;;;;;;5053713;28;20033;-74
2021/01/06 02:39:00;;;;;;;7.78;2.53;;;3.20;99.90;;;;;;5052827;28;20025;-74
2021/01/06 02:41:26;;;;;;;4.38;2.13;;;3.20;99.90;;;;;;5053964;28;20025;-74
2021/01/06 02:43:52;;;;;;;6.43;2.40;;;3.20;99.90;;;;;;5053942;28;20017;-74
2021/01/06 02:46:17;;;;;;;9.15;2.75;;;3.10;99.90;;;;;;5053788;28;20090;-74
2021/01/06 02:48:44;;;;;;;6.97;2.67;;;3.20;99.90;;;;;;5038704;28;20021;-74
2021/01/06 02:51:21;;;;;;;7.03;2.80;;;3.10;99.90;;;;;;5035060;28;20033;-74
2021/01/06 02:53:58;;;;;;;4.30;1.88;;;3.10;99.90;;;;;;5036570;28;20049;-74
2021/01/06 02:56:24;;;;;;;6.18;2.35;;;3.10;99.90;;;;;;5034090;28;20025;-74
2021/01/06 02:58:52;;;;;;;6.13;2.25;;;3.10;99.90;;;;;;5034685;28;20032;-74
2021/01/06 03:01:21;;;;;;;7.97;2.08;;;3.10;99.90;;;;;;5033983;28;20028;-74
2021/01/06 03:03:50;;;;;;;6.15;2.25;;;3.10;99.90;;;;;;5032697;28;20486;-74
2021/01/06 03:06:52;;;;;;;7.47;2.22;;;3.10;99.90;;;;;;5048857;28;20029;-74
2021/01/06 03:09:32;;;;;;;5.47;2.30;;;3.10;99.90;;;;;;5045028;28;20029;-75
2021/01/06 03:12:00;;;;;;;5.70;2.40;;;3.00;99.90;;;;;;5014851;28;20029;-74
2021/01/06 03:14:27;;;;;;;6.40;2.40;;;3.00;99.90;;;;;;5047925;28;20021;-74
2021/01/06 03:16:55;;;;;;;5.80;2.08;;;3.00;99.90;;;;;;5053748;28;20120;-74
2021/01/06 03:19:21;;;;;;;7.00;2.70;;;2.90;99.90;;;;;;5040841;28;20091;-74
2021/01/06 03:21:49;;;;;;;6.47;2.45;;;2.90;99.90;;;;;;5053429;28;20075;-74
2021/01/06 03:24:23;;;;;;;7.05;2.30;;;3.00;99.90;;;;;;5053849;28;20017;-74
2021/01/06 03:26:50;;;;;;;4.70;2.08;;;3.00;99.90;;;;;;5053260;28;20025;-74
2021/01/06 03:29:16;;;;;;;5.25;2.00;;;2.90;99.90;;;;;;5053460;28;20022;-74
2021/01/06 03:31:45;;;;;;;5.97;2.67;;;2.90;99.90;;;;;;5049548;28;20071;-74
2021/01/06 03:34:22;;;;;;;5.38;1.85;;;2.80;99.90;;;;;;5032290;28;20018;-74
2021/01/06 03:37:29;;;;;;;7.20;2.72;;;2.90;99.90;;;;;;5037705;28;20041;-74
2021/01/06 03:40:09;;;;;;;8.40;2.50;;;2.90;99.90;;;;;;5024919;28;20481;-73
2021/01/06 03:42:35;;;;;;;5.85;2.53;;;2.90;99.90;;;;;;5046466;28;20083;-73
2021/01/06 03:45:03;;;;;;;5.00;2.33;;;2.90;99.90;;;;;;5037198;28;20112;-73
2021/01/06 03:47:33;;;;;;;5.88;2.25;;;2.90;99.90;;;;;;5037965;28;20037;-73
2021/01/06 03:50:18;;;;;;;8.18;2.38;;;2.90;99.90;;;;;;5046457;28;20075;-73
2021/01/06 03:53:03;;;;;;;6.80;2.67;;;2.90;99.90;;;;;;5044119;28;20037;-73
2021/01/06 03:55:41;;;;;;;5.78;1.90;;;2.90;99.90;;;;;;5035842;28;20025;-74
2021/01/06 03:58:18;;;;;;;6.60;2.38;;;2.90;99.90;;;;;;5038237;28;20394;-74
2021/01/06 04:00:54;;;;;;;9.93;2.88;;;2.90;99.90;;;;;;5036031;28;20501;-74
2021/01/06 04:03:35;;;;;;;7.55;2.60;;;2.80;99.90;;;;;;5037889;28;20029;-74
2021/01/06 04:06:03;;;;;;;9.43;2.30;;;2.80;99.90;;;;;;5035692;28;20493;-74
2021/01/06 04:08:45;;;;;;;6.40;2.40;;;2.80;99.90;;;;;;5054796;28;20082;-73
2021/01/06 04:11:11;;;;;;;4.07;2.20;;;2.80;99.90;;;;;;5047859;28;20025;-73
2021/01/06 04:13:37;;;;;;;4.88;2.17;;;2.90;99.90;;;;;;5037251;28;20116;-73
2021/01/06 04:16:03;;;;;;;7.50;2.90;;;2.80;99.90;;;;;;5043937;28;20187;-74
2021/01/06 04:18:28;;;;;;;5.40;2.30;;;2.80;99.90;;;;;;5055341;28;20029;-73
2021/01/06 04:20:54;;;;;;;7.68;1.92;;;2.80;99.90;;;;;;5055371;28;20389;-74
2021/01/06 04:23:20;;;;;;;6.78;2.72;;;2.80;99.90;;;;;;5044832;28;20036;-73
2021/01/06 04:25:48;;;;;;;3.67;1.88;;;2.80;99.90;;;;;;5056527;28;20475;-73
2021/01/06 04:28:19;;;;;;;6.07;2.08;;;2.80;99.90;;;;;;5050394;28;20465;-73
2021/01/06 04:30:52;;;;;;;6.68;1.95;;;2.80;99.90;;;;;;5037172;28;20025;-74
2021/01/06 04:33:29;;;;;;;6.63;3.30;;;2.80;99.90;;;;;;5055233;28;20112;-73
2021/01/06 04:35:57;;;;;;;5.15;2.25;;;2.80;99.90;;;;;;5055110;28;20029;-74
2021/01/06 04:38:30;;;;;;;5.33;2.13;;;2.80;99.90;;;;;;5038695;28;20106;-73
2021/01/06 04:41:19;;;;;;;6.70;2.15;;;2.80;99.90;;;;;;5035028;28;20049;-73
2021/01/06 04:44:10;;;;;;;8.88;2.45;;;2.80;99.90;;;;;;5016481;28;20029;-73
2021/01/06 04:46:50;;;;;;;5.75;2.78;;;2.80;99.90;;;;;;5023091;28;20026;-73
2021/01/06 04:49:22;;;;;;;6.95;2.80;;;2.80;99.90;;;;;;5034210;28;20025;-73
2021/01/06 04:52:14;;;;;;;5.43;2.33;;;2.80;99.90;;;;;;5037856;28;20100;-74
2021/01/06 04:54:56;;;;;;;8.60;3.03;;;2.90;99.90;;;;;;5042240;28;20080;-74
2021/01/06 04:57:40;;;;;;;6.18;2.42;;;2.80;99.90;;;;;;5055983;28;20021;-74
2021/01/06 05:00:09;;;;;;;7.43;2.72;;;2.80;99.90;;;;;;5055734;28;20120;-74
2021/01/06 05:03:06;;;;;;;6.88;2.55;;;2.80;99.90;;;;;;5044671;28;20051;-74
2021/01/06 05:05:51;;;;;;;8.60;2.10;;;2.80;99.90;;;;;;4999427;28;20038;-74
2021/01/06 05:08:47;;;;;;;7.97;2.80;;;2.80;99.90;;;;;;5052658;28;20025;-74
2021/01/06 05:11:27;;;;;;;4.95;2.05;;;2.80;99.90;;;;;;5054972;28;20447;-75
2021/01/06 05:14:02;;;;;;;6.63;2.63;;;2.80;99.90;;;;;;5016463;28;20022;-74
2021/01/06 05:16:35;;;;;;;5.53;2.70;;;2.80;99.90;;;;;;5017811;28;20553;-74
2021/01/06 05:19:03;;;;;;;8.52;2.78;;;2.80;99.90;;;;;;5035428;28;20033;-74
2021/01/06 05:21:29;;;;;;;5.85;2.25;;;2.80;99.90;;;;;;5051285;28;20025;-74
2021/01/06 05:24:05;;;;;;;9.10;2.33;;;2.80;99.90;;;;;;5035503;28;20049;-74
2021/01/06 05:26:31;;;;;;;5.03;1.98;;;2.80;99.90;;;;;;5035882;28;20065;-74
2021/01/06 05:28:58;;;;;;;6.72;2.50;;;2.80;99.90;;;;;;5035344;28;20052;-73
2021/01/06 05:31:23;;;;;;;6.25;2.40;;;2.80;99.90;;;;;;5035998;28;20033;-74
2021/01/06 05:33:52;;;;;;;4.70;1.92;;;2.70;99.90;;;;;;5054053;28;20021;-73
2021/01/06 05:36:28;;;;;;;6.80;2.60;;;2.70;99.90;;;;;;5054936;28;20065;-73
2021/01/06 05:38:54;;;;;;;8.32;3.05;;;2.60;99.90;;;;;;5055667;28;20025;-73
2021/01/06 05:41:20;;;;;;;5.80;2.25;;;2.60;99.90;;;;;;5055036;28;20029;-74
2021/01/06 05:43:50;;;;;;;7.53;2.17;;;2.70;99.90;;;;;;5055427;28;20039;-73
2021/01/06 05:46:24;;;;;;;5.25;2.33;;;2.70;99.90;;;;;;5055585;28;20025;-74
2021/01/06 05:48:56;;;;;;;6.28;2.30;;;2.60;99.90;;;;;;5055427;28;20021;-74
2021/01/06 05:51:37;;;;;;;6.40;2.42;;;2.60;99.90;;;;;;5055051;28;20021;-73
2021/01/06 05:54:37;;;;;;;6.00;2.70;;;2.60;99.90;;;;;;5054837;28;20539;-73
2021/01/06 05:57:35;;;;;;;6.53;3.15;;;2.60;99.90;;;;;;5055302;28;20089;-73
2021/01/06 06:00:32;;;;;;;5.55;2.42;;;2.60;99.90;;;;;;5054578;28;20059;-73
2021/01/06 06:03:14;;;;;;;7.97;2.25;;;2.60;99.90;;;;;;5054924;28;20469;-74
2021/01/06 06:06:01;;;;;;;7.75;2.67;;;2.60;99.90;;;;;;5053435;28;20021;-73
2021/01/06 06:08:56;;;;;;;12.10;2.05;;;2.60;99.90;;;;;;5053324;28;20426;-74
2021/01/06 06:11:50;;;;;;;5.78;2.17;;;2.60;99.90;;;;;;5054334;28;20037;-73
2021/01/06 06:14:43;;;;;;;6.47;1.85;;;2.60;99.90;;;;;;5054092;28;20425;-74
2021/01/06 06:17:32;;;;;;;5.57;2.13;;;2.60;99.90;;;;;;5053541;28;20492;-74
2021/01/06 06:20:11;;;;;;;5.68;2.00;;;2.60;99.90;;;;;;5055176;28;20052;-74
2021/01/06 06:22:51;;;;;;;5.25;2.63;;;2.60;99.90;;;;;;5054755;28;20031;-74
2021/01/06 06:25:29;;;;;;;4.47;2.00;;;2.60;99.90;;;;;;5037500;28;20035;-74
2021/01/06 06:28:10;;;;;;;11.68;3.67;;;2.60;99.90;;;;;;5032795;28;20478;-73
2021/01/06 06:30:52;;;;;;;4.70;1.85;;;2.70;99.90;;;;;;5033938;28;20036;-73
2021/01/06 06:33:34;;;;;;;5.78;2.35;;;2.70;99.90;;;;;;5032760;28;20031;-74
2021/01/06 06:36:12;;;;;;;7.35;2.10;;;2.70;99.90;;;;;;5107397;23;20473;-74
2021/01/06 06:38:39;;;;;;;5.88;2.30;;;2.70;99.90;;;;;;5055923;28;20025;-74
2021/01/06 06:41:31;;;;;;;4.85;1.73;;;2.60;99.90;;;;;;5055783;28;20444;-74
2021/01/06 06:44:25;;;;;;;4.00;1.77;;;2.60;99.90;;;;;;5055626;28;20472;-74
2021/01/06 06:47:15;;;;;;;5.15;2.00;;;2.60;99.90;;;;;;5055691;28;20028;-74
2021/01/06 06:49:49;;;;;;;7.93;2.08;;;2.70;99.90;;;;;;5055965;28;20122;-74
2021/01/06 06:52:37;;;;;;;6.05;1.83;;;2.70;99.90;;;;;;5074348;28;20029;-73
2021/01/06 06:55:30;;;;;;;4.15;1.98;;;2.60;99.90;;;;;;5059979;28;20025;-73
2021/01/06 06:58:25;;;;;;;6.70;1.83;;;2.60;99.90;;;;;;5053876;28;20112;-74
2021/01/06 07:00:51;;;;;;;4.40;2.08;;;2.60;99.90;;;;;;5054144;28;20021;-74
2021/01/06 07:03:24;;;;;;;5.63;1.90;;;2.60;99.90;;;;;;5035770;28;20064;-73
2021/01/06 07:05:55;;;;;;;6.35;1.83;;;2.60;99.90;;;;;;5053652;28;20051;-73
2021/01/06 07:08:29;;;;;;;5.28;2.00;;;2.60;99.90;;;;;;5035995;28;20021;-74
2021/01/06 07:11:05;;;;;;;5.10;2.17;;;2.70;99.90;;;;;;5053085;28;20429;-74
2021/01/06 07:13:32;;;;;;;7.75;1.98;;;2.60;99.90;;;;;;5035930;28;20017;-74
2021/01/06 07:16:31;;;;;;;5.15;1.98;;;2.60;99.90;;;;;;5053425;28;20032;-73
2021/01/06 07:19:16;;;;;;;6.07;2.10;;;2.60;99.90;;;;;;5041815;28;20079;-74
2021/01/06 07:21:42;;;;;;;6.00;2.25;;;2.70;99.90;;;;;;5054251;28;20064;-74
2021/01/06 07:24:07;;;;;;;4.80;2.08;;;2.70;99.90;;;;;;5035665;28;20029;-73
2021/01/06 07:26:43;;;;;;;5.97;2.33;;;2.60;99.90;;;;;;5035581;28;20545;-74
2021/01/06 07:29:12;;;;;;;7.10;2.13;;;2.60;99.90;;;;;;5053478;28;20025;-73
2021/01/06 07:31:51;;;;;;;6.13;2.07;;;2.60;99.90;;;;;;5053604;28;20112;-73
2021/01/06 07:34:38;;;;;;;7.10;2.30;;;2.60;99.90;;;;;;5035720;28;20053;-74
2021/01/06 07:37:06;;;;;;;6.07;2.30;;;2.70;99.90;;;;;;5035556;28;20041;-74
2021/01/06 07:39:37;;;;;;;5.15;2.05;;;2.70;99.90;;;;;;5054049;28;20424;-74
2021/01/06 07:42:07;;;;;;;8.15;1.92;;;2.70;99.90;;;;;;5035767;28;20021;-74
2021/01/06 07:44:36;;;;;;;6.13;1.95;;;2.80;99.90;;;;;;5053543;28;20021;-73
2021/01/06 07:47:02;;;;;;;6.22;2.28;;;2.80;99.90;;;;;;5053276;28;20033;-73
2021/01/06 07:49:42;;;;;;;5.75;2.17;;;2.70;99.90;;;;;;5053585;28;20478;-74
2021/01/06 07:52:23;;;;;;;6.57;2.25;;;2.70;99.90;;;;;;5036763;28;20112;-74
2021/01/06 07:54:53;;;;;;;6.07;2.28;;;2.60;99.90;;;;;;5053857;28;20021;-74
2021/01/06 07:57:27;;;;;;;6.45;2.38;;;2.60;99.90;;;;;;5053595;28;20025;-75
2021/01/06 07:59:58;;;;;;;5.55;1.98;;;2.60;99.90;;;;;;5035603;28;20044;-75
2021/01/06 08:02:37;;;;;;;6.95;2.25;;;2.60;99.90;;;;;;5053560;28;20024;-75
2021/01/06 08:05:33;;;;;;;5.28;2.13;;;2.60;99.90;;;;;;5053550;28;20059;-76
2021/01/06 08:08:11;;;;;;;6.47;2.28;;;2.60;99.90;;;;;;5054007;28;20019;-75
2021/01/06 08:10:44;;;;;;;;;;;2.60;99.90;;;;;;5054772;28;20071;-75
2021/01/06 08:13:30;;;;;;;4.50;1.95;;;2.60;99.90;;;;;;5053602;28;19944;-74
2021/01/06 08:16:11;;;;;;;7.95;2.00;;;2.70;99.90;;;;;;5035818;28;20052;-74
2021/01/06 08:18:55;;;;;;;4.65;1.98;;;2.70;99.90;;;;;;5054195;28;20032;-74
2021/01/06 08:21:28;;;;;;;6.90;2.45;;;2.70;99.90;;;;;;5055019;28;20032;-74
2021/01/06 08:24:19;;;;;;;5.13;1.90;;;2.70;99.90;;;;;;5041129;28;20075;-74
2021/01/06 08:26:54;;;;;;;7.97;2.42;;;2.70;99.90;;;;;;5057247;28;20033;-74
2021/01/06 08:29:34;;;;;;;7.55;2.63;;;2.70;99.90;;;;;;5056685;28;20511;-74
2021/01/06 08:32:02;;;;;;;6.72;2.47;;;2.80;99.90;;;;;;5056517;28;20148;-74
2021/01/06 08:34:34;;;;;;;8.70;1.77;;;2.80;99.90;;;;;;5056442;28;20021;-74
2021/01/06 08:37:01;;;;;;;7.28;2.58;;;2.80;99.90;;;;;;5038130;28;20511;-74
2021/01/06 08:39:29;;;;;;;6.05;2.00;;;2.80;99.90;;;;;;5056284;28;20025;-73
2021/01/06 08:42:06;;;;;;;4.85;2.10;;;2.90;99.90;;;;;;5056236;28;20021;-74
2021/01/06 08:44:39;;;;;;;6.95;1.95;;;2.90;99.90;;;;;;5055875;28;20025;-74
2021/01/06 08:47:09;;;;;;;5.63;2.20;;;2.90;99.90;;;;;;5037962;28;20100;-74
2021/01/06 08:49:42;;;;;;;7.35;2.50;;;2.90;99.90;;;;;;5055785;28;20021;-75
2021/01/06 08:52:23;;;;;;;5.40;2.17;;;2.90;99.90;;;;;;5056071;28;20523;-73
2021/01/06 08:55:22;;;;;;;4.30;2.22;;;2.90;99.90;;;;;;5055945;28;20060;-73
2021/01/06 08:58:03;;;;;;;6.93;1.88;;;2.90;99.90;;;;;;5002980;28;20087;-73
2021/01/06 09:00:42;;;;;;;7.05;2.45;;;2.90;99.90;;;;;;5037830;28;20028;-73
2021/01/06 09:03:07;;;;;;;;;;;2.90;99.90;;;;;;5055983;28;20495;-73
2021/01/06 09:05:48;;;;;;;3.70;1.35;;;3.00;99.90;;;;;;5055244;28;19913;-74
2021/01/06 09:08:26;;;;;;;6.10;2.17;;;3.00;99.90;;;;;;5055382;28;20027;-74
2021/01/06 09:11:00;;;;;;;6.65;2.28;;;3.10;99.90;;;;;;5055495;28;20033;-74
2021/01/06 09:13:32;;;;;;;6.57;2.28;;;3.10;99.90;;;;;;5055435;28;20025;-73
2021/01/06 09:16:08;;;;;;;6.72;2.35;;;3.10;99.90;;;;;;5055397;28;20029;-73
2021/01/06 09:18:58;;;;;;;7.10;2.42;;;3.10;99.90;;;;;;5037468;28;20087;-74
2021/01/06 09:21:32;;;;;;;5.50;2.17;;;3.10;99.90;;;;;;5026959;28;20037;-73
2021/01/06 09:24:17;;;;;;;6.93;2.70;;;3.20;99.90;;;;;;5055196;28;20037;-74
2021/01/06 09:26:46;;;;;;;5.25;2.17;;;3.20;99.90;;;;;;5055224;28;20481;-73
2021/01/06 09:29:17;;;;;;;7.47;2.13;;;3.20;99.90;;;;;;5037208;28;20017;-73
2021/01/06 09:31:45;;;;;;;8.40;2.15;;;3.30;99.90;;;;;;5037389;28;20500;-73
2021/01/06 09:34:14;;;;;;;5.15;1.77;;;3.30;99.90;;;;;;5054439;28;20444;-73
2021/01/06 09:36:41;;;;;;;4.47;1.90;;;3.30;99.90;;;;;;5054664;28;20485;-73
2021/01/06 09:39:21;;;;;;;9.15;2.78;;;3.40;99.90;;;;;;5055499;28;20039;-73
2021/01/06 09:41:47;;;;;;;5.88;2.42;;;3.40;99.90;;;;;;5054932;28;20033;-73
2021/01/06 09:44:13;;;;;;;9.52;2.78;;;3.40;99.90;;;;;;5036922;28;20021;-74
2021/01/06 09:46:59;;;;;;;5.88;2.45;;;3.40;99.90;;;;;;5036914;28;20083;-74
2021/01/06 09:49:31;;;;;;;4.90;2.40;;;3.40;99.90;;;;;;5055357;28;20154;-74
2021/01/06 09:52:02;;;;;;;7.75;2.88;;;3.40;99.90;;;;;;5037237;28;20055;-74
2021/01/06 09:54:28;;;;;;;7.72;3.15;;;3.40;99.90;;;;;;5037016;28;20487;-73
2021/01/06 09:56:55;;;;;;;4.70;2.05;;;3.40;99.90;;;;;;5036639;28;20534;-74
2021/01/06 09:59:24;;;;;;;6.85;2.40;;;3.50;99.90;;;;;;5036793;28;20441;-74
2021/01/06 10:02:13;;;;;;;5.30;2.08;;;3.60;99.90;;;;;;5036621;28;20501;-75
2021/01/06 10:04:42;;;;;;;5.65;2.35;;;3.60;99.90;;;;;;5054243;28;20032;-74
2021/01/06 10:07:26;;;;;;;4.75;1.80;;;3.60;99.90;;;;;;5036567;28;20021;-74
2021/01/06 10:09:58;;;;;;;5.13;2.38;;;3.60;99.90;;;;;;5054598;28;20053;-74
2021/01/06 10:12:31;;;;;;;5.43;2.15;;;3.70;99.90;;;;;;5036308;28;20435;-73
2021/01/06 10:15:36;;;;;;;6.90;2.45;;;3.70;99.90;;;;;;5038066;28;20104;-75
2021/01/06 10:18:43;;;;;;;5.50;2.53;;;3.70;99.90;;;;;;5053873;28;20027;-75
2021/01/06 10:21:30;;;;;;;8.45;2.80;;;3.70;99.90;;;;;;5036507;28;20432;-75
2021/01/06 10:24:11;;;;;;;7.68;2.65;;;3.70;99.90;;;;;;5036227;28;20100;-75
2021/01/06 10:27:12;;;;;;;7.60;2.85;;;3.70;99.90;;;;;;5035969;28;20032;-75
2021/01/06 10:29:47;;;;;;;6.65;2.47;;;3.70;99.90;;;;;;5054003;28;20334;-75
2021/01/06 10:32:13;;;;;;;5.68;2.20;;;3.70;99.90;;;;;;5054024;28;20099;-75
2021/01/06 10:34:41;;;;;;;5.72;2.55;;;3.80;99.90;;;;;;5054090;28;20044;-75
2021/01/06 10:37:25;;;;;;;4.80;1.90;;;3.80;99.90;;;;;;5053862;28;20068;-75
2021/01/06 10:39:59;;;;;;;3.78;1.70;;;3.80;99.90;;;;;;5054256;28;20035;-75
2021/01/06 10:42:24;;;;;;;8.35;2.78;;;3.80;99.90;;;;;;5054140;28;20616;-75
2021/01/06 10:44:53;;;;;;;7.45;2.30;;;3.80;99.90;;;;;;5053241;28;20108;-75
2021/01/06 10:47:24;;;;;;;4.60;1.88;;;3.80;99.90;;;;;;5035191;28;20549;-76
2021/01/06 10:50:04;;;;;;;6.13;1.88;;;3.90;99.90;;;;;;5035770;28;20033;-74
2021/01/06 10:53:07;;;;;;;7.88;2.10;;;3.90;99.90;;;;;;5053832;28;20050;-75
2021/01/06 10:56:00;;;;;;;7.07;2.10;;;4.00;99.90;;;;;;5053535;28;20489;-75
2021/01/06 10:59:04;;;;;;;5.32;2.03;;;4.00;99.90;;;;;;5053546;28;20060;-75
2021/01/06 11:02:02;;;;;;;5.60;1.85;;;4.00;99.90;;;;;;5053971;28;20021;-75
2021/01/06 11:04:36;;;;;;;3.63;1.38;;;4.00;99.90;;;;;;5020141;28;20064;-75
2021/01/06 11:07:24;;;;;;;8.10;2.50;;;4.00;99.90;;;;;;5036322;28;20106;-75
2021/01/06 11:10:29;;;;;;;5.00;1.85;;;4.00;99.90;;;;;;5036460;28;20028;-75
2021/01/06 11:13:30;;;;;;;3.88;1.38;;;4.00;99.90;;;;;;5054075;28;20025;-74
2021/01/06 11:16:13;;;;;;;4.75;1.63;;;4.10;99.90;;;;;;5036195;28;20033;-76
2021/01/06 11:18:42;;;;;;;6.95;1.30;;;4.10;99.90;;;;;;5053857;28;20059;-75
2021/01/06 11:21:12;;;;;;;7.57;1.73;;;4.10;99.90;;;;;;5036317;28;20029;-75
2021/01/06 11:23:59;;;;;;;6.60;2.10;;;4.20;99.90;;;;;;5054128;28;20025;-75
2021/01/06 11:26:30;;;;;;;4.65;1.67;;;4.20;99.90;;;;;;5035625;28;20112;-75
2021/01/06 11:29:06;;;;;;;4.97;1.48;;;4.20;99.90;;;;;;5035529;28;20033;-76
2021/01/06 11:31:36;;;;;;;49.65;4.45;;;4.30;99.90;;;;;;5053938;28;20017;-77
2021/01/06 11:34:11;;;;;;;25.95;3.60;;;4.30;99.90;;;;;;5034991;28;20499;-75
2021/01/06 11:36:47;;;;;;;24.77;2.78;;;4.30;99.90;;;;;;5053016;28;20033;-76
2021/01/06 11:39:36;;;;;;;14.48;1.92;;;4.40;99.90;;;;;;5053707;28;20473;-75
2021/01/06 11:42:12;;;;;;;32.60;3.70;;;4.40;99.90;;;;;;5045457;28;20037;-75
2021/01/06 11:45:13;;;;;;;4.63;0.80;;;4.50;99.90;;;;;;5053286;28;20029;-75
2021/01/06 11:48:05;;;;;;;5.28;1.25;;;4.50;99.90;;;;;;5053208;28;20033;-75
2021/01/06 11:50:45;;;;;;;7.57;0.80;;;4.40;99.90;;;;;;5035240;28;20032;-75
2021/01/06 11:53:47;;;;;;;2.95;0.63;;;4.40;99.90;;;;;;5036599;28;20481;-75
2021/01/06 11:56:24;;;;;;;5.78;1.48;;;4.40;99.90;;;;;;4977242;28;20109;-76
2021/01/06 11:59:15;;;;;;;41.97;6.07;;;4.40;99.90;;;;;;5030868;28;20037;-72
2021/01/06 12:02:03;;;;;;;7.93;1.75;;;4.30;99.90;;;;;;5057483;28;20029;-72
2021/01/06 12:05:00;;;;;;;5.72;0.85;;;4.40;99.90;;;;;;5039338;28;20098;-72
2021/01/06 12:08:09;;;;;;;8.07;0.50;;;4.40;99.90;;;;;;5056931;28;20120;-72
2021/01/06 12:10:48;;;;;;;11.90;1.55;;;4.40;99.90;;;;;;5037435;28;20473;-71
2021/01/06 12:13:51;;;;;;;13.43;1.63;;;4.40;99.90;;;;;;5039412;28;20021;-71
2021/01/06 12:16:22;;;;;;;2.30;0.52;;;4.40;99.90;;;;;;5057453;28;20406;-72
2021/01/06 12:18:53;;;;;;;5.93;1.00;;;4.30;99.90;;;;;;5056866;28;20021;-72
2021/01/06 12:21:41;;;;;;;6.15;0.43;;;4.20;99.90;;;;;;5084855;22;20044;-73
2021/01/06 12:24:19;;;;;;;3.85;0.50;;;4.10;99.90;;;;;;5077081;28;20607;-73
2021/01/06 12:27:10;;;;;;;3.00;0.73;;;4.10;99.90;;;;;;5076444;28;20029;-72
2021/01/06 12:29:52;;;;;;;3.33;0.93;;;4.10;99.90;;;;;;5076940;28;20107;-72
2021/01/06 12:32:34;;;;;;;2.90;0.47;;;4.00;99.90;;;;;;5058438;28;20489;-73
2021/01/06 12:35:21;;;;;;;9.38;0.57;;;4.00;99.90;;;;;;5076355;28;20033;-72
2021/01/06 12:38:18;;;;;;;2.55;0.47;;;4.00;99.90;;;;;;5076836;28;20039;-72
2021/01/06 12:41:12;;;;;;;2.67;1.10;;;4.00;99.90;;;;;;5049908;28;20043;-72
2021/01/06 12:43:48;;;;;;;4.03;1.00;;;4.10;99.90;;;;;;5058145;28;20028;-74
2021/01/06 12:46:24;;;;;;;6.03;0.68;;;4.10;99.90;;;;;;5058752;28;20070;-74
2021/01/06 12:48:57;;;;;;;2.92;1.02;;;4.10;99.90;;;;;;5076752;28;20043;-74
2021/01/06 12:51:27;;;;;;;3.97;0.65;;;4.20;99.90;;;;;;5076616;28;20022;-74
2021/01/06 12:54:03;;;;;;;3.95;1.17;;;4.20;99.90;;;;;;5058822;28;20056;-74
2021/01/06 12:56:45;;;;;;;2.00;0.43;;;4.20;99.90;;;;;;5058706;28;20028;-73
2021/01/06 12:59:20;;;;;;;4.63;0.77;;;4.20;99.90;;;;;;5058128;28;20029;-72
2021/01/06 13:01:58;;;;;;;5.85;1.27;;;4.20;99.90;;;;;;5058301;28;20078;-73
2021/01/06 13:04:31;;;;;;;6.85;1.52;;;4.20;99.90;;;;;;5057973;28;20388;-72
2021/01/06 13:07:27;;;;;;;5.18;1.05;;;4.20;99.90;;;;;;5075954;28;20021;-72
2021/01/06 13:09:59;;;;;;;4.22;1.10;;;4.20;99.90;;;;;;5075039;28;20063;-73
2021/01/06 13:12:37;;;;;;;5.57;1.20;;;4.20;99.90;;;;;;5076068;28;20013;-73
2021/01/06 13:15:16;;;;;;;2.95;0.50;;;4.20;99.90;;;;;;5075761;28;20021;-73
2021/01/06 13:17:44;;;;;;;4.32;0.60;;;4.20;99.90;;;;;;5075711;28;20383;-73
2021/01/06 13:20:37;;;;;;;1.80;0.40;;;4.20;99.90;;;;;;5075191;28;20024;-73
2021/01/06 13:23:23;;;;;;;3.05;0.32;;;4.20;99.90;;;;;;5075797;28;20456;-73
2021/01/06 13:26:17;;;;;;;9.23;1.88;;;4.20;99.90;;;;;;5075741;28;20025;-74
2021/01/06 13:29:01;;;;;;;7.75;1.77;;;4.20;99.90;;;;;;5034074;28;20488;-74
2021/01/06 13:31:32;;;;;;;4.85;0.80;;;4.20;99.90;;;;;;5075541;28;20056;-73
2021/01/06 13:34:28;;;;;;;5.93;1.00;;;4.20;99.90;;;;;;5075602;28;20025;-73
2021/01/06 13:37:05;;;;;;;3.78;1.08;;;4.20;99.90;;;;;;5073810;28;20031;-74
2021/01/06 13:39:38;;;;;;;2.15;0.40;;;4.20;99.90;;;;;;5057301;28;20115;-74
2021/01/06 13:42:34;;;;;;;69.82;19.25;;;4.20;99.90;;;;;;5057245;28;20090;-74